الصفحة الرئيسية
METAR-TAF:

METAR-TAF

مطار :

دنفر, كولورادو, الولايات المتحدة

Front Range

دائرة عرض: 39-47N, خط طول: 104-33W, ارتفاع: 1709 متر

مراقبة الطقس الحالي

تاريخ ووقت الإصدار 15 دقيقة قبل الساعة 15:53UTC
ريح 7 عقدة من الجنوب
درجة الحرارة 7°درجة مئوية
الرطوبة 57%
ضغط 1027 hPa
الرؤية: 16.1 كم
سماء صافية

METAR: KFTG 251553Z 17007KT 10SM SKC 07/M01 A3033

زمن: 10:08 (16:08 UTC)


TAF: مفقودة

أرصاد الطقس والتوقعات من أكثر من 4000 مطار (تقارير الطقس للمطار METAR والتنبؤ بالطقس بالمطارTAF).

المحطات المتاحة هي النقط الصفراء والحمراء على الخريطة.

حرك المؤشر فوق النقطة لمعرفة اسم المحطة.

ثم انقر لمعرفة أرصاد وتوقعات الطقس.

لتغيير الخارطة: اضغط على الأزرار الخضراء مع رمز الصليب الأسود للتكبير. على الزر الأخضر مع شرطة للتصغير، أو على الأسهم الخضراء للخرائط المجاورة.


METAR-TAF: